New Castle, VA (24127)

1:22 AM EDT on September 16, 2014 (GMT -0400)
Craig County, Va | Change Station
CLOSE
Current Station
Personal Weather Station
Location: New Castle, VA
Elevation: 1440 ft
Nearby Weather Stations

Elev 1440 ft 37.45 °N, 80.11 °W | Updated 7 seconds ago

Partly Cloudy
Partly Cloudy
62.1 °F
Feels Like 62.1 °F
N
1.2
Wind Variable Wind from WSW
Gusts 0.0 mph

Today
High -- | Low -- °F
--% Chance of Precip.
Yesterday
High -- | Low -- °F
Precip. -- in
7:03 AM 7:26 PM
Waning Gibbous, 49% visible
Pressure 30.06 in
Visibility 10.0 miles
Clouds Clear
Dew Point 62 °F
Humidity 98%
Rainfall 0.00 in
Snow Depth Not available.
UV 0 out of 12
Pollen 7.20 out of 12
Air Quality Not available.
Flu Activity Not available.
METAR KROA 160454Z 00000KT 10SM CLR 19/17 A3009 RMK AO2 SLP180 T01940167 402330133

More Conditions Fewer Conditions

Pressure 30.06 in
Visibility 10.0 miles
Clouds Clear
Dew Point 62 °F
Humidity 98%
Rainfall 0.00 in
Snow Depth Not available.
UV 0 out of 12
Pollen 7.20 out of 12
Air Quality Not available.
Flu Activity Not available.
METAR KROA 160454Z 00000KT 10SM CLR 19/17 A3009 RMK AO2 SLP180 T01940167 402330133

More Conditions Fewer Conditions

10-Day Weather Forecast

Almanac

Astronomy

Sep. 16, 2014 Rise Set
Actual Time 7:03 AM EDT 7:26 PM EDT
Civil Twilight 6:37 AM EDT 7:52 PM EDT
Nautical Twilight 6:06 AM EDT 8:23 PM EDT
Astronomical Twilight 5:34 AM EDT 8:54 PM EDT
Moon 12:16 AM EDT 2:44 PM EDT
Length of Visible Light 13h 15m
Length of Day
12h 23m
Tomorrow will be 2m 22s shorter.
Waning Gibbous, 49% of the Moon is Illuminated
Today
Waning Gibbous
Sep 24
New
Oct 1
First Quarter
Oct 8
Full
Oct 15
Last Quarter

Today's Extremes

State Highs State Lows

Community

WunderPhotos

Upload Photos

1,753,702 photos uploaded!

Nearby

Air Quality

  Air Quality AQ Index Pollutant
Yesterday Good
OZONE
Yesterday Good
PM2.5
Monday Good
OZONE
Monday Good
PM2.5
Tuesday Good
OZONE
Tuesday Good
PM2.5

Snow Depth

Station Depth Elevation
No new snow has been reported.

Earthquake Activity

City Distance Mag. Time & Date
No recent earthquake activity has been reported nearby.
Minimum magnitude displayed is 2.5.

Coastal Water Temperatures

Place Temperature
No Stations Reporting

Nearby Weather Stations